Pagina principale
METAR-TAF:

METAR-TAF

Aeroporti :

Lahr, Germania

latitudine: 48-22-09N, longitudine: 007-49-40E, altezza: 156 m

Osservazione

Il bollettino è stato emesso 6 ore e 37 minuti fa, alle 18:50 UTC
Vento 5 kt da nord-est
Temperature 4°C
Umidità 52%
Pressione 1035 hPa
Visibilità 10 km o più
nessuna nube inferiore a 1500 m e nessun cumulonembo

METAR: EDTL 231850Z 05005KT CAVOK 04/M05 Q1035

Ora: 02:27 (01:27 UTC)

Previsione

Il bollettino è stato emesso 7 ore e 33 minuti fa, alle 17:54 UTC
Previsione valida dal 23 alle 18 UTC al 23 alle 24 UTC
Vento 3 kt da nord
Visibilità 10 km o più
nessuna nube inferiore a 1500 m e nessun cumulonembo

TAF: EDTL 231754Z 2318/2324 35003KT CAVOK

Osservazioni e previsioni meteorologiche di più di 4000 aeroporti (messaggi METAR e TAF).

Le stazioni disponibili sono rappresentate dai dischi gialli e rossi sulla carta.

Puntare il mouse per vedere il nome della stazione.

Clicca sopra per visualizzare le osservazioni e previsioni meteorologiche.

Per cambiare la mappa : fare clic sui pulsanti verdi con una croce nera per ingrandire, il pulsante verde con un trattino per diminuire, o sulla freccia verde per le mappe adiacenti.


METAR-TAF: